Time,TemperatureF,DewpointF,PressureIn,WindDirection,WindDirectionDegrees,WindSpeedMPH,WindSpeedGustMPH,Humidity,HourlyPrecipIn,Conditions,Clouds,dailyrainin,SolarRadiationWatts/m^2,SoftwareType,DateUTC
2013-05-25 00:00:00,47.0,37.0,30.04,NW,325,11.0,-999.0,69,-99.99,,,-99.99,0.010000,,2013-05-25 06:00:00,
2013-05-25 00:52:00,47.0,37.0,30.04,NW,325,11.0,-999.0,69,-99.99,,,-99.99,0.010000,,2013-05-25 06:52:00,
2013-05-25 02:00:00,41.0,38.0,30.04,ENE,78,3.0,-999.0,86,-99.99,,,-99.99,0.060000,,2013-05-25 08:00:00,
2013-05-25 02:52:00,41.0,38.0,30.04,ENE,78,3.0,-999.0,86,-99.99,,,-99.99,0.060000,,2013-05-25 08:52:00,
2013-05-25 03:00:00,37.0,35.0,30.03,South,179,3.0,-999.0,90,-99.99,,,-99.99,0.110000,,2013-05-25 09:00:00,
2013-05-25 03:53:00,37.0,35.0,30.03,South,179,3.0,-999.0,90,-99.99,,,-99.99,0.110000,,2013-05-25 09:53:00,
2013-05-25 04:00:00,38.0,36.0,30.03,SW,224,6.0,-999.0,91,-99.99,,,-99.99,0.190000,,2013-05-25 10:00:00,
2013-05-25 04:52:00,38.0,36.0,30.03,SW,224,6.0,-999.0,91,-99.99,,,-99.99,0.190000,,2013-05-25 10:52:00,
2013-05-25 05:00:00,38.0,35.0,30.03,SW,232,5.0,-999.0,89,-99.99,,,-99.99,0.150000,,2013-05-25 11:00:00,
2013-05-25 05:52:00,38.0,35.0,30.03,SW,232,5.0,-999.0,89,-99.99,,,-99.99,0.150000,,2013-05-25 11:52:00,
2013-05-25 06:00:00,37.0,35.0,30.04,WSW,246,4.0,-999.0,91,-99.99,,,-99.99,5.900000,,2013-05-25 12:00:00,
2013-05-25 06:52:00,37.0,35.0,30.04,WSW,246,4.0,-999.0,91,-99.99,,,-99.99,5.900000,,2013-05-25 12:52:00,
2013-05-25 07:00:00,42.0,37.0,30.04,SW,220,4.0,-999.0,81,-99.99,,,-99.99,65.610001,,2013-05-25 13:00:00,
2013-05-25 07:52:00,42.0,37.0,30.04,SW,220,4.0,-999.0,81,-99.99,,,-99.99,65.610001,,2013-05-25 13:52:00,
2013-05-25 08:00:00,48.0,38.0,30.04,SSW,207,5.0,-999.0,69,-99.99,,,-99.99,241.899994,,2013-05-25 14:00:00,
2013-05-25 08:52:00,48.0,38.0,30.04,SSW,207,5.0,-999.0,69,-99.99,,,-99.99,241.899994,,2013-05-25 14:52:00,
2013-05-25 09:00:00,53.0,36.0,30.04,South,184,2.0,-999.0,52,-99.99,,,-99.99,393.700012,,2013-05-25 15:00:00,
2013-05-25 09:53:00,53.0,36.0,30.04,South,184,2.0,-999.0,52,-99.99,,,-99.99,393.700012,,2013-05-25 15:53:00,
2013-05-25 10:00:00,54.0,34.0,30.03,ENE,70,3.0,-999.0,46,-99.99,,,-99.99,509.600006,,2013-05-25 16:00:00,
2013-05-25 10:52:00,54.0,34.0,30.03,ENE,70,3.0,-999.0,46,-99.99,,,-99.99,509.600006,,2013-05-25 16:52:00,
2013-05-25 11:00:00,56.0,38.0,30.02,East,82,3.0,-999.0,52,-99.99,,,-99.99,577.099976,,2013-05-25 17:00:00,
2013-05-25 11:52:00,56.0,38.0,30.02,East,82,3.0,-999.0,52,-99.99,,,-99.99,577.099976,,2013-05-25 17:52:00,
2013-05-25 12:00:00,58.0,37.0,30.00,ENE,70,4.0,-999.0,46,-99.99,,,-99.99,651.799988,,2013-05-25 18:00:00,
2013-05-25 12:52:00,58.0,37.0,30.00,ENE,70,4.0,-999.0,46,-99.99,,,-99.99,651.799988,,2013-05-25 18:52:00,
2013-05-25 13:00:00,60.0,35.0,30.00,NE,52,4.0,-999.0,40,-99.99,,,-99.99,596.200012,,2013-05-25 19:00:00,
2013-05-25 13:52:00,60.0,35.0,30.00,NE,52,4.0,-999.0,40,-99.99,,,-99.99,596.200012,,2013-05-25 19:52:00,
2013-05-25 14:00:00,61.0,37.0,30.00,NNE,26,5.0,-999.0,41,-99.99,,,-99.99,614.500000,,2013-05-25 20:00:00,
2013-05-25 14:52:00,61.0,37.0,30.00,NNE,26,5.0,-999.0,41,-99.99,,,-99.99,614.500000,,2013-05-25 20:52:00,
2013-05-25 15:00:00,61.0,38.0,30.01,NNW,346,8.0,-999.0,41,-99.99,,,-99.99,523.400024,,2013-05-25 21:00:00,
2013-05-25 15:53:00,61.0,38.0,30.01,NNW,346,8.0,-999.0,41,-99.99,,,-99.99,523.400024,,2013-05-25 21:53:00,
2013-05-25 16:00:00,61.0,38.0,30.03,North,0,8.0,-999.0,42,-99.99,,,-99.99,279.399994,,2013-05-25 22:00:00,
2013-05-25 16:52:00,61.0,38.0,30.03,North,0,8.0,-999.0,42,-99.99,,,-99.99,279.399994,,2013-05-25 22:52:00,
2013-05-25 17:00:00,55.0,42.0,30.05,West,265,10.0,-999.0,62,-99.99,,,-99.99,136.300003,,2013-05-25 23:00:00,
2013-05-25 17:52:00,55.0,42.0,30.05,West,265,10.0,-999.0,62,-99.99,,,-99.99,136.300003,,2013-05-25 23:52:00,
2013-05-25 18:00:00,57.0,37.0,29.98,SSE,165,11.0,-999.0,47,-99.99,,,-99.99,114.300003,,2013-05-26 00:00:00,
2013-05-25 18:52:00,57.0,37.0,29.98,SSE,165,11.0,-999.0,47,-99.99,,,-99.99,114.300003,,2013-05-26 00:52:00,
2013-05-25 19:00:00,61.0,39.0,30.00,SE,131,12.0,-999.0,44,-99.99,,,-99.99,339.899994,,2013-05-26 01:00:00,
2013-05-25 19:52:00,61.0,39.0,30.00,SE,131,12.0,-999.0,44,-99.99,,,-99.99,339.899994,,2013-05-26 01:52:00,
2013-05-25 20:00:00,59.0,42.0,30.01,SE,132,8.0,-999.0,54,-99.99,,,-99.99,169.100006,,2013-05-26 02:00:00,
2013-05-25 20:52:00,59.0,42.0,30.01,SE,132,8.0,-999.0,54,-99.99,,,-99.99,169.100006,,2013-05-26 02:52:00,
2013-05-25 21:00:00,51.0,43.0,30.02,WNW,297,6.0,-999.0,72,-99.99,,,-99.99,30.639999,,2013-05-26 03:00:00,
2013-05-25 21:53:00,51.0,43.0,30.02,WNW,297,6.0,-999.0,72,-99.99,,,-99.99,30.639999,,2013-05-26 03:53:00,
2013-05-25 22:00:00,49.0,42.0,30.04,WNW,301,10.0,-999.0,77,-99.99,,,-99.99,0.690000,,2013-05-26 04:00:00,
2013-05-25 22:52:00,49.0,42.0,30.04,WNW,301,10.0,-999.0,77,-99.99,,,-99.99,0.690000,,2013-05-26 04:52:00,
2013-05-25 23:00:00,45.0,41.0,30.05,WNW,292,6.0,-999.0,85,-99.99,,,-99.99,0.010000,,2013-05-26 05:00:00,
2013-05-25 23:52:00,45.0,41.0,30.05,WNW,292,6.0,-999.0,85,-99.99,,,-99.99,0.010000,,2013-05-26 05:52:00,